Time;durP1;ratioP1;P1;durP2;ratioP2;P2;SDS_P1;SDS_P2;PMS_P1;PMS_P2;Temp;Humidity;BMP_temperature;BMP_pressure;BME280_temperature;BME280_humidity;BME280_pressure;Samples;Min_cycle;Max_cycle;Signal;HPM_P1;HPM_P2
2024/03/11 00:00:09;;;;;;;40.40;34.20;;;;;;;;;;5040222;28;20032;-95
2024/03/11 00:02:35;;;;;;;42.03;35.67;;;;;;;;;;5046457;28;20414;-94
2024/03/11 00:05:02;;;;;;;45.20;33.95;;;;;;;;;;5060135;28;20362;-95
2024/03/11 00:07:33;;;;;;;41.35;36.25;;;;;;;;;;5060009;28;20043;-96
2024/03/11 00:10:00;;;;;;;44.90;38.70;;;;;;;;;;5060409;28;20126;-95
2024/03/11 00:12:29;;;;;;;37.95;32.28;;;;;;;;;;5056346;28;20082;-95
2024/03/11 00:14:57;;;;;;;51.33;45.80;;;;;;;;;;5082679;28;20025;-94
2024/03/11 00:17:24;;;;;;;43.17;35.78;;;;;;;;;;5049637;28;20033;-93
2024/03/11 00:19:50;;;;;;;36.03;29.40;;;;;;;;;;5040528;28;20032;-92
2024/03/11 00:22:16;;;;;;;44.47;34.50;;;;;;;;;;5040137;28;20054;-91
2024/03/11 00:24:44;;;;;;;42.03;30.55;;;;;;;;;;5043937;28;20028;-92
2024/03/11 00:27:10;;;;;;;35.17;28.92;;;;;;;;;;5075275;28;20032;-93
2024/03/11 00:29:37;;;;;;;37.47;27.67;;;;;;;;;;5067748;28;20029;-91
2024/03/11 00:32:05;;;;;;;37.88;28.98;;;;;;;;;;5077589;28;20099;-92
2024/03/11 00:34:32;;;;;;;36.67;30.13;;;;;;;;;;5072382;28;20075;-94
2024/03/11 00:36:59;;;;;;;38.50;30.23;;;;;;;;;;5059435;28;20035;-92
2024/03/11 00:39:26;;;;;;;36.95;29.40;;;;;;;;;;5042345;28;20041;-94
2024/03/11 00:41:52;;;;;;;36.60;28.55;;;;;;;;;;5042434;28;20423;-93
2024/03/11 00:44:21;;;;;;;30.17;26.20;;;;;;;;;;5044603;28;20036;-94
2024/03/11 00:46:48;;;;;;;34.63;24.92;;;;;;;;;;5038981;28;20053;-94
2024/03/11 00:49:15;;;;;;;32.75;24.35;;;;;;;;;;5039005;28;20516;-92
2024/03/11 00:51:41;;;;;;;29.95;23.45;;;;;;;;;;5039017;28;20067;-94
2024/03/11 00:54:07;;;;;;;33.78;22.73;;;;;;;;;;5039203;28;20108;-94
2024/03/11 00:56:35;;;;;;;24.98;21.00;;;;;;;;;;5039566;28;20029;-91
2024/03/11 00:59:04;;;;;;;30.83;22.73;;;;;;;;;;5038729;28;20078;-93
2024/03/11 01:01:30;;;;;;;29.08;22.42;;;;;;;;;;5040192;28;20478;-92
2024/03/11 01:03:58;;;;;;;32.20;21.20;;;;;;;;;;5068166;28;20122;-92
2024/03/11 01:06:25;;;;;;;29.55;22.08;;;;;;;;;;5048837;28;20059;-94
2024/03/11 01:08:51;;;;;;;27.20;20.02;;;;;;;;;;5046411;28;20021;-92
2024/03/11 01:11:17;;;;;;;28.38;18.52;;;;;;;;;;5047320;28;20044;-95
2024/03/11 01:13:45;;;;;;;26.42;18.77;;;;;;;;;;5039348;28;20028;-93
2024/03/11 01:16:12;;;;;;;26.95;17.50;;;;;;;;;;5039152;28;20033;-93
2024/03/11 01:18:39;;;;;;;32.40;21.52;;;;;;;;;;5038477;28;20029;-94
2024/03/11 01:21:05;;;;;;;25.88;16.70;;;;;;;;;;5038430;28;20021;-94
2024/03/11 01:23:31;;;;;;;24.95;16.23;;;;;;;;;;5038926;28;20029;-94
2024/03/11 01:29:29;;;;;;;24.77;16.85;;;;;;;;;;5093800;22;20064;-94
2024/03/11 01:31:55;;;;;;;21.08;15.07;;;;;;;;;;5058330;28;20107;-95
2024/03/11 01:34:22;;;;;;;26.27;17.55;;;;;;;;;;5058132;28;20020;-92
2024/03/11 01:36:49;;;;;;;25.77;16.77;;;;;;;;;;5058281;28;20033;-94
2024/03/11 01:39:25;;;;;;;23.90;16.33;;;;;;;;;;5058264;28;20020;-92
2024/03/11 01:41:54;;;;;;;22.35;15.23;;;;;;;;;;5058135;28;20032;-94
2024/03/11 01:44:21;;;;;;;22.40;14.65;;;;;;;;;;5058219;28;20032;-94
2024/03/11 01:46:50;;;;;;;21.75;15.63;;;;;;;;;;5058155;28;20115;-92
2024/03/11 01:49:16;;;;;;;29.70;16.40;;;;;;;;;;5058025;28;20101;-93
2024/03/11 01:51:43;;;;;;;22.65;16.00;;;;;;;;;;5056812;28;20029;-94
2024/03/11 01:54:10;;;;;;;26.42;17.23;;;;;;;;;;5045774;28;20100;-94
2024/03/11 01:56:37;;;;;;;23.33;17.48;;;;;;;;;;5044669;28;20400;-95
2024/03/11 01:59:04;;;;;;;21.90;15.13;;;;;;;;;;5049055;28;20029;-92
2024/03/11 02:01:30;;;;;;;20.13;14.63;;;;;;;;;;5072507;28;20086;-93
2024/03/11 02:03:56;;;;;;;19.77;14.57;;;;;;;;;;5058801;28;20044;-92
2024/03/11 02:06:24;;;;;;;22.38;15.75;;;;;;;;;;5038292;28;20025;-93
2024/03/11 02:08:51;;;;;;;22.90;14.35;;;;;;;;;;5037724;28;20120;-94
2024/03/11 02:11:20;;;;;;;26.58;16.70;;;;;;;;;;5040288;28;20048;-94
2024/03/11 02:13:46;;;;;;;27.83;16.33;;;;;;;;;;5057443;28;20112;-93
2024/03/11 02:16:12;;;;;;;25.42;16.48;;;;;;;;;;5057614;28;20465;-94
2024/03/11 02:18:39;;;;;;;19.98;14.60;;;;;;;;;;5057703;28;20021;-94
2024/03/11 02:21:06;;;;;;;22.92;16.63;;;;;;;;;;5057313;28;20524;-96
2024/03/11 02:23:33;;;;;;;24.02;16.50;;;;;;;;;;5057322;28;20040;-95
2024/03/11 02:26:00;;;;;;;25.90;17.52;;;;;;;;;;5057400;28;20032;-94
2024/03/11 02:28:26;;;;;;;25.95;16.88;;;;;;;;;;5055815;28;20045;-95
2024/03/11 02:30:53;;;;;;;23.75;17.45;;;;;;;;;;5053872;28;20028;-91
2024/03/11 02:33:19;;;;;;;23.33;14.75;;;;;;;;;;5054133;28;20389;-95
2024/03/11 02:35:46;;;;;;;21.20;15.07;;;;;;;;;;5054508;28;20025;-93
2024/03/11 02:38:13;;;;;;;19.58;15.95;;;;;;;;;;5053875;28;20025;-93
2024/03/11 02:40:39;;;;;;;22.08;14.57;;;;;;;;;;5054035;28;20023;-94
2024/03/11 02:43:07;;;;;;;24.30;16.85;;;;;;;;;;5053835;28;20063;-95
2024/03/11 02:45:34;;;;;;;21.77;15.10;;;;;;;;;;5070921;28;20031;-93
2024/03/11 02:48:00;;;;;;;23.38;15.20;;;;;;;;;;5051221;28;20029;-95
2024/03/11 02:50:27;;;;;;;22.65;15.30;;;;;;;;;;5037194;28;20025;-95
2024/03/11 02:52:53;;;;;;;24.33;16.40;;;;;;;;;;5037035;28;20025;-95
2024/03/11 02:55:22;;;;;;;22.63;17.88;;;;;;;;;;5021875;28;20032;-92
2024/03/11 02:57:49;;;;;;;20.02;15.00;;;;;;;;;;5051841;28;20029;-95
2024/03/11 03:00:17;;;;;;;24.63;13.80;;;;;;;;;;5037616;28;20406;-91
2024/03/11 03:02:43;;;;;;;22.25;15.35;;;;;;;;;;5039011;28;20029;-95
2024/03/11 03:05:12;;;;;;;20.38;15.60;;;;;;;;;;5037048;28;20219;-92
2024/03/11 03:07:38;;;;;;;21.15;14.85;;;;;;;;;;5036861;28;20029;-94
2024/03/11 03:10:04;;;;;;;21.00;13.68;;;;;;;;;;5036743;28;20021;-93
2024/03/11 03:12:30;;;;;;;24.65;14.65;;;;;;;;;;5036598;28;20131;-94
2024/03/11 03:14:58;;;;;;;21.33;14.40;;;;;;;;;;5036810;28;20116;-95
2024/03/11 03:17:24;;;;;;;25.02;15.30;;;;;;;;;;5036786;28;20086;-94
2024/03/11 03:19:50;;;;;;;26.70;16.33;;;;;;;;;;5036659;28;20078;-95
2024/03/11 03:22:16;;;;;;;23.05;16.73;;;;;;;;;;5036931;28;20017;-94
2024/03/11 03:24:42;;;;;;;24.67;16.15;;;;;;;;;;5042105;28;20067;-94
2024/03/11 03:27:09;;;;;;;32.33;17.55;;;;;;;;;;5064220;28;20037;-93
2024/03/11 03:29:39;;;;;;;23.27;16.52;;;;;;;;;;5070965;28;20017;-94
2024/03/11 03:32:06;;;;;;;25.83;15.70;;;;;;;;;;5080140;28;20025;-93
2024/03/11 03:34:32;;;;;;;26.63;15.25;;;;;;;;;;5067369;28;20029;-95
2024/03/11 03:36:58;;;;;;;24.08;17.50;;;;;;;;;;5060146;28;20548;-95
2024/03/11 03:39:25;;;;;;;25.00;17.27;;;;;;;;;;5057568;28;20071;-95
2024/03/11 03:41:51;;;;;;;28.58;15.57;;;;;;;;;;5056437;28;20748;-94
2024/03/11 03:44:18;;;;;;;25.90;16.10;;;;;;;;;;5056513;28;20033;-94
2024/03/11 03:46:44;;;;;;;23.25;16.20;;;;;;;;;;5057139;28;20043;-94
2024/03/11 03:49:10;;;;;;;24.75;15.48;;;;;;;;;;5059528;28;20066;-93
2024/03/11 03:51:36;;;;;;;23.02;15.27;;;;;;;;;;5043910;28;20040;-93
2024/03/11 03:54:03;;;;;;;22.05;15.10;;;;;;;;;;5039468;28;20067;-92
2024/03/11 03:56:30;;;;;;;21.40;16.45;;;;;;;;;;5045996;28;20025;-96
2024/03/11 03:58:56;;;;;;;22.60;16.10;;;;;;;;;;5036735;28;20098;-93
2024/03/11 04:01:23;;;;;;;25.05;15.90;;;;;;;;;;5036231;28;20032;-91
2024/03/11 04:03:50;;;;;;;23.42;15.75;;;;;;;;;;5048762;28;20049;-93
2024/03/11 04:06:17;;;;;;;27.73;14.95;;;;;;;;;;5037684;28;20025;-93
2024/03/11 04:08:43;;;;;;;27.95;15.55;;;;;;;;;;5036482;28;20025;-95
2024/03/11 04:11:11;;;;;;;23.77;15.57;;;;;;;;;;5036426;28;20490;-93
2024/03/11 04:13:37;;;;;;;21.40;16.08;;;;;;;;;;5036461;28;20470;-95
2024/03/11 04:16:04;;;;;;;27.92;17.13;;;;;;;;;;5040135;28;20111;-96
2024/03/11 04:18:31;;;;;;;22.13;15.75;;;;;;;;;;5040659;28;20086;-93
2024/03/11 04:20:57;;;;;;;25.08;15.85;;;;;;;;;;5040027;28;20197;-94
2024/03/11 04:23:26;;;;;;;27.15;17.50;;;;;;;;;;5040629;28;20025;-93
2024/03/11 04:25:52;;;;;;;28.85;16.48;;;;;;;;;;5056651;28;20024;-94
2024/03/11 04:28:18;;;;;;;25.60;17.60;;;;;;;;;;5072372;28;20084;-94
2024/03/11 04:30:44;;;;;;;20.77;15.07;;;;;;;;;;5067688;28;20082;-92
2024/03/11 04:33:17;;;;;;;21.55;14.75;;;;;;;;;;5058483;28;20060;-94
2024/03/11 04:35:44;;;;;;;23.87;16.00;;;;;;;;;;5040260;28;20029;-95
2024/03/11 04:38:10;;;;;;;29.90;16.42;;;;;;;;;;5039325;28;20032;-95
2024/03/11 04:40:41;;;;;;;22.50;15.60;;;;;;;;;;5051581;28;20485;-92
2024/03/11 04:43:07;;;;;;;24.75;17.30;;;;;;;;;;5044337;28;20258;-93
2024/03/11 04:45:35;;;;;;;18.83;15.60;;;;;;;;;;5040718;28;20039;-92
2024/03/11 04:48:04;;;;;;;27.73;14.68;;;;;;;;;;5045649;28;20492;-93
2024/03/11 04:50:32;;;;;;;21.52;15.73;;;;;;;;;;5043409;28;20039;-93
2024/03/11 04:53:00;;;;;;;22.83;15.68;;;;;;;;;;5060507;28;20031;-94
2024/03/11 04:55:27;;;;;;;21.75;15.95;;;;;;;;;;5067224;28;20039;-93
2024/03/11 04:57:53;;;;;;;26.52;15.27;;;;;;;;;;5073022;28;20017;-92
2024/03/11 05:00:20;;;;;;;25.58;15.38;;;;;;;;;;5066728;28;20020;-95
2024/03/11 05:02:46;;;;;;;27.10;15.65;;;;;;;;;;5059532;28;20055;-95
2024/03/11 05:05:13;;;;;;;23.65;14.35;;;;;;;;;;5059316;28;20029;-95
2024/03/11 05:07:43;;;;;;;26.13;15.73;;;;;;;;;;5058533;28;20024;-96
2024/03/11 05:10:12;;;;;;;25.52;17.77;;;;;;;;;;5038811;28;20044;-95
2024/03/11 05:12:38;;;;;;;35.30;19.35;;;;;;;;;;5039000;28;20135;-95
2024/03/11 05:15:11;;;;;;;31.88;22.55;;;;;;;;;;5038703;28;20033;-95
2024/03/11 05:17:39;;;;;;;34.83;26.63;;;;;;;;;;5039223;28;20111;-92
2024/03/11 05:20:14;;;;;;;38.80;23.13;;;;;;;;;;5039186;28;20068;-96
2024/03/11 05:22:44;;;;;;;40.17;24.67;;;;;;;;;;5048259;28;20017;-92
2024/03/11 05:25:17;;;;;;;36.78;22.83;;;;;;;;;;5058197;28;20036;-93
2024/03/11 05:27:47;;;;;;;36.25;22.35;;;;;;;;;;5049017;28;20042;-94
2024/03/11 05:30:14;;;;;;;94.68;38.60;;;;;;;;;;5036425;28;20024;-93
2024/03/11 05:32:44;;;;;;;119.00;48.63;;;;;;;;;;5035173;28;20140;-96
2024/03/11 05:35:11;;;;;;;53.20;29.40;;;;;;;;;;5035622;28;20025;-96
2024/03/11 05:37:37;;;;;;;54.38;28.90;;;;;;;;;;5036185;28;20060;-93
2024/03/11 05:40:05;;;;;;;32.50;19.20;;;;;;;;;;5035322;28;20025;-93
2024/03/11 05:42:33;;;;;;;34.92;20.80;;;;;;;;;;5035416;28;20032;-95
2024/03/11 05:45:03;;;;;;;44.05;23.13;;;;;;;;;;5037222;28;20375;-94
2024/03/11 05:47:32;;;;;;;30.73;19.42;;;;;;;;;;5036128;28;20066;-95
2024/03/11 05:50:01;;;;;;;33.92;21.45;;;;;;;;;;5035905;28;20497;-91
2024/03/11 05:52:32;;;;;;;28.40;18.50;;;;;;;;;;5033463;28;20049;-93
2024/03/11 05:55:23;;;;;;;28.85;17.45;;;;;;;;;;5034022;28;20502;-93
2024/03/11 05:57:59;;;;;;;28.88;18.50;;;;;;;;;;5036538;28;20129;-94
2024/03/11 06:00:31;;;;;;;26.48;17.05;;;;;;;;;;5035682;28;20044;-95
2024/03/11 06:03:03;;;;;;;27.30;19.38;;;;;;;;;;5035712;28;20646;-94
2024/03/11 06:05:36;;;;;;;31.37;21.40;;;;;;;;;;5019598;28;20034;-94
2024/03/11 06:08:08;;;;;;;28.38;20.50;;;;;;;;;;5043797;28;20033;-94
2024/03/11 06:10:50;;;;;;;26.55;18.50;;;;;;;;;;5044603;28;20029;-92
2024/03/11 06:13:16;;;;;;;26.83;21.38;;;;;;;;;;5016636;28;20037;-93
2024/03/11 06:15:46;;;;;;;20.15;16.98;;;;;;;;;;5014378;28;20022;-94
2024/03/11 06:18:15;;;;;;;26.45;18.48;;;;;;;;;;5013956;28;20026;-95
2024/03/11 06:20:45;;;;;;;27.92;17.15;;;;;;;;;;5014012;28;20079;-94
2024/03/11 06:23:18;;;;;;;23.40;14.52;;;;;;;;;;5014521;28;20072;-95
2024/03/11 06:25:45;;;;;;;20.58;12.75;;;;;;;;;;5048926;28;20021;-92
2024/03/11 06:28:22;;;;;;;;;;;;;;;;;;;;;
2024/03/11 06:30:54;;;;;;;20.90;11.57;;;;;;;;;;5016908;28;20014;-93
2024/03/11 06:33:52;;;;;;;22.20;14.35;;;;;;;;;;5014145;28;20037;-94
2024/03/11 06:36:18;;;;;;;22.92;14.52;;;;;;;;;;5015047;28;20486;-93
2024/03/11 06:38:48;;;;;;;19.92;13.70;;;;;;;;;;5023231;28;20029;-93
2024/03/11 06:41:17;;;;;;;20.50;15.93;;;;;;;;;;5045006;28;20009;-91
2024/03/11 06:43:50;;;;;;;23.13;18.27;;;;;;;;;;5045836;28;20017;-95
2024/03/11 06:46:19;;;;;;;21.90;17.10;;;;;;;;;;5022972;28;20053;-95
2024/03/11 06:49:22;;;;;;;24.10;16.58;;;;;;;;;;5016387;28;20093;-93
2024/03/11 06:51:48;;;;;;;17.40;14.35;;;;;;;;;;5016696;28;20467;-96
2024/03/11 06:54:24;;;;;;;21.95;18.98;;;;;;;;;;5024277;28;20470;-95
2024/03/11 06:56:54;;;;;;;38.13;34.67;;;;;;;;;;5038787;28;20038;-95
2024/03/11 07:10:25;;;;;;;16.25;14.23;;;;;;;;;;5134222;22;20133;-96
2024/03/11 07:12:52;;;;;;;16.52;14.48;;;;;;;;;;5052317;28;20424;-95
2024/03/11 07:15:18;;;;;;;16.38;13.20;;;;;;;;;;5041850;28;20482;-96
2024/03/11 07:17:46;;;;;;;16.02;11.90;;;;;;;;;;5041054;28;20041;-96
2024/03/11 07:20:24;;;;;;;15.50;11.30;;;;;;;;;;5039742;28;20292;-96
2024/03/11 07:22:51;;;;;;;17.88;12.00;;;;;;;;;;5020796;28;20041;-93
2024/03/11 07:25:17;;;;;;;15.23;13.50;;;;;;;;;;5043561;28;20029;-93
2024/03/11 07:27:47;;;;;;;13.63;11.80;;;;;;;;;;5046468;28;20024;-96
2024/03/11 07:30:22;;;;;;;16.10;14.43;;;;;;;;;;5041057;28;20021;-95
2024/03/11 07:33:06;;;;;;;20.42;18.25;;;;;;;;;;5055948;28;20552;-93
2024/03/11 07:35:34;;;;;;;21.02;18.85;;;;;;;;;;5062140;28;20108;-94
2024/03/11 07:38:00;;;;;;;26.73;24.23;;;;;;;;;;5052502;28;20025;-93
2024/03/11 07:40:29;;;;;;;31.83;28.80;;;;;;;;;;5052504;28;20025;-90
2024/03/11 07:45:59;;;;;;;22.35;20.00;;;;;;;;;;5059286;28;20023;-91
2024/03/11 07:48:25;;;;;;;22.95;15.13;;;;;;;;;;5055818;28;20374;-91
2024/03/11 07:50:58;;;;;;;21.17;13.55;;;;;;;;;;5067263;28;20028;-92
2024/03/11 07:53:24;;;;;;;17.83;13.48;;;;;;;;;;5072469;28;20024;-92
2024/03/11 07:55:57;;;;;;;21.52;14.48;;;;;;;;;;5046609;28;20186;-92
2024/03/11 07:58:23;;;;;;;18.58;13.95;;;;;;;;;;5059629;28;20024;-93
2024/03/11 08:00:52;;;;;;;18.60;15.32;;;;;;;;;;5043611;28;20033;-91
2024/03/11 08:03:19;;;;;;;18.70;15.27;;;;;;;;;;5045101;28;20029;-92
2024/03/11 08:05:46;;;;;;;20.02;15.10;;;;;;;;;;5049196;28;20052;-90
2024/03/11 08:08:12;;;;;;;17.67;14.90;;;;;;;;;;5059244;28;20029;-93
2024/03/11 08:10:38;;;;;;;21.00;16.98;;;;;;;;;;5042608;28;20108;-93
2024/03/11 08:13:04;;;;;;;22.88;18.15;;;;;;;;;;5039482;28;20025;-94
2024/03/11 08:15:32;;;;;;;21.20;15.88;;;;;;;;;;5039790;28;20029;-93
2024/03/11 08:17:58;;;;;;;19.58;16.10;;;;;;;;;;5039978;28;20443;-90
2024/03/11 08:20:25;;;;;;;20.30;18.10;;;;;;;;;;5039560;28;20017;-91
2024/03/11 08:22:54;;;;;;;24.58;21.73;;;;;;;;;;5039753;28;20055;-91
2024/03/11 08:25:27;;;;;;;23.20;20.90;;;;;;;;;;5043173;28;20028;-93
2024/03/11 08:27:56;;;;;;;24.23;18.77;;;;;;;;;;5043095;28;20057;-93
2024/03/11 08:30:23;;;;;;;26.50;21.30;;;;;;;;;;5038995;28;20032;-91
2024/03/11 08:32:50;;;;;;;24.55;20.00;;;;;;;;;;5046226;28;20500;-92
2024/03/11 08:35:17;;;;;;;24.58;18.23;;;;;;;;;;5049305;28;20030;-93
2024/03/11 08:37:43;;;;;;;20.42;18.58;;;;;;;;;;5040686;28;20040;-94
2024/03/11 08:40:14;;;;;;;24.63;21.52;;;;;;;;;;5040644;28;20021;-92
2024/03/11 08:42:44;;;;;;;22.90;20.50;;;;;;;;;;5039249;28;20540;-94
2024/03/11 08:45:11;;;;;;;21.23;19.00;;;;;;;;;;5047703;28;20025;-91
2024/03/11 08:47:41;;;;;;;24.50;22.02;;;;;;;;;;5057358;28;20032;-90
2024/03/11 08:50:08;;;;;;;25.38;23.15;;;;;;;;;;5054683;28;20025;-91
2024/03/11 08:52:37;;;;;;;21.10;18.85;;;;;;;;;;5059094;28;20404;-90
2024/03/11 08:55:06;;;;;;;20.67;18.58;;;;;;;;;;5059400;28;20074;-92
2024/03/11 08:57:34;;;;;;;21.40;19.17;;;;;;;;;;5059334;28;20025;-95
2024/03/11 09:00:06;;;;;;;19.60;17.55;;;;;;;;;;5059368;28;20469;-89
2024/03/11 09:02:36;;;;;;;17.33;14.93;;;;;;;;;;5059193;28;20028;-96
2024/03/11 09:05:03;;;;;;;20.15;18.42;;;;;;;;;;5059445;28;20035;-91
2024/03/11 09:07:30;;;;;;;18.15;16.30;;;;;;;;;;5059458;28;20055;-94
2024/03/11 09:09:59;;;;;;;14.88;13.00;;;;;;;;;;5058817;28;20186;-91
2024/03/11 09:12:25;;;;;;;14.93;12.45;;;;;;;;;;5058807;28;20081;-94
2024/03/11 09:14:55;;;;;;;18.67;13.38;;;;;;;;;;5058744;28;20020;-94
2024/03/11 09:17:22;;;;;;;18.00;15.77;;;;;;;;;;5058872;28;20043;-90
2024/03/11 09:19:48;;;;;;;16.95;14.95;;;;;;;;;;5050920;28;20049;-91
2024/03/11 09:22:16;;;;;;;20.13;17.98;;;;;;;;;;5039183;28;20056;-92
2024/03/11 09:24:42;;;;;;;19.35;17.33;;;;;;;;;;5054085;28;20100;-89
2024/03/11 09:27:09;;;;;;;20.20;16.63;;;;;;;;;;5072033;28;20032;-91
2024/03/11 09:29:37;;;;;;;213.70;120.32;;;;;;;;;;5059028;28;20031;-91
2024/03/11 09:32:03;;;;;;;21.20;18.88;;;;;;;;;;5058360;28;20066;-92
2024/03/11 09:34:29;;;;;;;21.98;16.38;;;;;;;;;;5063070;28;20016;-92
2024/03/11 09:36:55;;;;;;;16.42;12.35;;;;;;;;;;5071806;28;20037;-94
2024/03/11 09:39:23;;;;;;;18.05;13.35;;;;;;;;;;5078858;28;20124;-91
2024/03/11 09:41:49;;;;;;;49.40;34.88;;;;;;;;;;5059878;28;20024;-89
2024/03/11 09:44:15;;;;;;;20.08;12.95;;;;;;;;;;5054293;28;20036;-88
2024/03/11 09:46:49;;;;;;;22.23;17.30;;;;;;;;;;5071542;28;20044;-90
2024/03/11 09:49:15;;;;;;;29.02;24.00;;;;;;;;;;5054670;28;20517;-93
2024/03/11 09:51:45;;;;;;;20.73;17.63;;;;;;;;;;5053910;28;20037;-91
2024/03/11 09:54:16;;;;;;;21.08;18.38;;;;;;;;;;5057524;28;20028;-90
2024/03/11 09:56:47;;;;;;;23.05;20.13;;;;;;;;;;5057695;28;20039;-92
2024/03/11 09:59:18;;;;;;;23.60;20.75;;;;;;;;;;5058095;28;20021;-90
2024/03/11 10:02:06;;;;;;;21.65;19.08;;;;;;;;;;5057852;28;20052;-96
2024/03/11 10:04:41;;;;;;;31.52;24.85;;;;;;;;;;5058907;28;20029;-96
2024/03/11 10:07:30;;;;;;;67.00;57.10;;;;;;;;;;5062320;28;20029;-95
2024/03/11 10:09:59;;;;;;;43.75;33.85;;;;;;;;;;5064456;28;20113;-95
2024/03/11 10:12:34;;;;;;;23.20;15.32;;;;;;;;;;5066510;28;20067;-96
2024/03/11 10:15:01;;;;;;;21.25;17.42;;;;;;;;;;5083949;28;20036;-96
2024/03/11 10:17:38;;;;;;;24.88;20.20;;;;;;;;;;5078461;28;20481;-96
2024/03/11 10:20:22;;;;;;;27.75;20.50;;;;;;;;;;5077143;28;20153;-93
2024/03/11 10:23:04;;;;;;;23.10;18.77;;;;;;;;;;5062438;28;20037;-95
2024/03/11 10:25:35;;;;;;;30.98;23.85;;;;;;;;;;5059240;28;20021;-96
2024/03/11 10:28:07;;;;;;;24.30;19.88;;;;;;;;;;5058313;28;20128;-90
2024/03/11 10:30:35;;;;;;;30.65;25.33;;;;;;;;;;5054090;28;20057;-91
2024/03/11 10:33:03;;;;;;;20.60;17.98;;;;;;;;;;5053538;28;20037;-93
2024/03/11 10:35:51;;;;;;;23.60;17.63;;;;;;;;;;5053901;28;20025;-94
2024/03/11 10:38:18;;;;;;;41.65;30.63;;;;;;;;;;5054650;28;20118;-96
2024/03/11 10:40:45;;;;;;;23.95;18.40;;;;;;;;;;5050895;28;20052;-89
2024/03/11 10:43:21;;;;;;;22.05;17.67;;;;;;;;;;5053317;28;20079;-91
2024/03/11 10:45:47;;;;;;;20.98;17.10;;;;;;;;;;5053123;28;20542;-90
2024/03/11 10:48:15;;;;;;;21.77;19.45;;;;;;;;;;5056788;28;20055;-90
2024/03/11 10:50:41;;;;;;;21.58;15.73;;;;;;;;;;5044679;28;20037;-89
2024/03/11 10:53:09;;;;;;;28.17;16.75;;;;;;;;;;5050957;28;20477;-89
2024/03/11 10:55:42;;;;;;;27.75;18.90;;;;;;;;;;5059074;28;20024;-88
2024/03/11 10:58:09;;;;;;;32.13;21.35;;;;;;;;;;5060483;28;20048;-90
2024/03/11 11:00:35;;;;;;;35.25;25.98;;;;;;;;;;5056563;28;20029;-87
2024/03/11 11:03:12;;;;;;;36.78;32.80;;;;;;;;;;5056474;28;20047;-90
2024/03/11 11:05:51;;;;;;;29.52;26.38;;;;;;;;;;5073981;28;20049;-89
2024/03/11 11:08:17;;;;;;;101.22;65.05;;;;;;;;;;5054217;28;20025;-90
2024/03/11 11:10:45;;;;;;;177.65;110.55;;;;;;;;;;5041769;28;20065;-90
2024/03/11 11:13:17;;;;;;;78.55;46.22;;;;;;;;;;5033021;28;20033;-92
2024/03/11 11:15:45;;;;;;;41.72;31.42;;;;;;;;;;5033618;28;20025;-90
2024/03/11 11:18:15;;;;;;;28.45;22.90;;;;;;;;;;5033207;28;20028;-92
2024/03/11 11:20:47;;;;;;;26.83;22.20;;;;;;;;;;5044907;28;20037;-92
2024/03/11 11:23:24;;;;;;;26.55;22.40;;;;;;;;;;5048448;28;20152;-94
2024/03/11 11:25:55;;;;;;;25.30;21.48;;;;;;;;;;5040525;28;20049;-95
2024/03/11 11:28:37;;;;;;;23.52;20.13;;;;;;;;;;5036795;28;20087;-93
2024/03/11 11:31:26;;;;;;;28.67;22.38;;;;;;;;;;5037237;28;20040;-94
2024/03/11 11:33:56;;;;;;;26.70;20.70;;;;;;;;;;5038333;28;20034;-91
2024/03/11 11:36:32;;;;;;;25.40;19.40;;;;;;;;;;5036822;28;20132;-92
2024/03/11 11:39:13;;;;;;;22.92;17.50;;;;;;;;;;5037094;28;20030;-93
2024/03/11 11:41:57;;;;;;;25.23;21.83;;;;;;;;;;5036799;28;20034;-90
2024/03/11 11:44:33;;;;;;;26.63;19.30;;;;;;;;;;5037105;28;20026;-93
2024/03/11 11:47:08;;;;;;;26.98;19.05;;;;;;;;;;5037030;28;20048;-91
2024/03/11 11:49:38;;;;;;;26.33;18.88;;;;;;;;;;5037247;28;20067;-92
2024/03/11 11:52:04;;;;;;;24.08;17.45;;;;;;;;;;5036971;28;20041;-91
2024/03/11 11:54:34;;;;;;;25.67;16.98;;;;;;;;;;5036668;28;20032;-91
2024/03/11 11:57:15;;;;;;;28.20;17.65;;;;;;;;;;5036369;28;20112;-91
2024/03/11 12:00:13;;;;;;;25.08;17.35;;;;;;;;;;5036426;28;20021;-91
2024/03/11 12:02:49;;;;;;;24.58;16.98;;;;;;;;;;5036700;28;20053;-91
2024/03/11 12:05:16;;;;;;;27.50;18.65;;;;;;;;;;5037235;28;20363;-94
2024/03/11 12:07:43;;;;;;;29.58;17.85;;;;;;;;;;5036217;28;20025;-90
2024/03/11 12:10:15;;;;;;;24.75;16.25;;;;;;;;;;5020726;28;20059;-92
2024/03/11 12:12:44;;;;;;;27.58;17.40;;;;;;;;;;5036830;28;20037;-92
2024/03/11 12:15:25;;;;;;;25.55;16.77;;;;;;;;;;5016535;28;20065;-91
2024/03/11 12:17:53;;;;;;;26.98;16.73;;;;;;;;;;5016517;28;20160;-91
2024/03/11 12:22:55;;;;;;;27.75;18.48;;;;;;;;;;5029617;28;20374;-90
2024/03/11 12:25:21;;;;;;;29.85;20.83;;;;;;;;;;5046586;28;20033;-87
2024/03/11 12:28:04;;;;;;;27.60;19.70;;;;;;;;;;5046112;28;20061;-92
2024/03/11 12:30:37;;;;;;;28.85;19.65;;;;;;;;;;5033121;28;20030;-91
2024/03/11 12:33:07;;;;;;;30.02;20.50;;;;;;;;;;5024342;28;20069;-91
2024/03/11 12:35:36;;;;;;;26.30;20.50;;;;;;;;;;5035169;28;20030;-94
2024/03/11 12:38:03;;;;;;;26.10;18.83;;;;;;;;;;5036123;28;20057;-91
2024/03/11 12:40:57;;;;;;;32.20;23.10;;;;;;;;;;5036255;28;20056;-92
2024/03/11 12:43:35;;;;;;;30.02;21.80;;;;;;;;;;5036294;28;20033;-94
2024/03/11 12:46:07;;;;;;;31.23;19.80;;;;;;;;;;5058461;28;20013;-94
2024/03/11 12:48:35;;;;;;;28.45;20.55;;;;;;;;;;5049830;28;20025;-93
2024/03/11 12:51:10;;;;;;;27.60;20.15;;;;;;;;;;5042590;28;20029;-95
2024/03/11 12:53:37;;;;;;;28.38;19.48;;;;;;;;;;5036345;28;20033;-96
2024/03/11 12:56:15;;;;;;;29.88;21.00;;;;;;;;;;5037584;28;20415;-95
2024/03/11 12:58:42;;;;;;;25.10;18.17;;;;;;;;;;5037551;28;20083;-92
2024/03/11 13:01:12;;;;;;;25.58;18.33;;;;;;;;;;5040587;28;20478;-95
2024/03/11 13:03:44;;;;;;;29.58;19.08;;;;;;;;;;5039081;28;20026;-94
2024/03/11 13:06:16;;;;;;;27.43;19.40;;;;;;;;;;5036919;28;20113;-94
2024/03/11 13:08:43;;;;;;;25.35;20.50;;;;;;;;;;5046506;28;20017;-92
2024/03/11 13:14:13;;;;;;;27.27;19.80;;;;;;;;;;5043283;28;20028;-91
2024/03/11 13:16:48;;;;;;;30.52;18.75;;;;;;;;;;5010685;28;20042;-95
2024/03/11 13:19:14;;;;;;;27.13;20.08;;;;;;;;;;4982009;28;20094;-95
2024/03/11 13:21:44;;;;;;;30.95;24.27;;;;;;;;;;5002971;28;20038;-92
2024/03/11 13:24:34;;;;;;;28.92;20.23;;;;;;;;;;5002840;28;20026;-96
2024/03/11 13:27:07;;;;;;;32.00;23.08;;;;;;;;;;5011544;28;20098;-96
2024/03/11 13:29:55;;;;;;;32.15;23.20;;;;;;;;;;4981836;28;20122;-95
2024/03/11 13:32:21;;;;;;;27.92;22.48;;;;;;;;;;4990128;28;20057;-92
2024/03/11 13:35:01;;;;;;;32.08;26.75;;;;;;;;;;5004614;28;20082;-93
2024/03/11 13:37:30;;;;;;;30.83;26.75;;;;;;;;;;5000217;28;20088;-93
2024/03/11 13:43:16;;;;;;;30.95;23.60;;;;;;;;;;4957255;28;20037;-95
2024/03/11 13:45:51;;;;;;;34.33;23.35;;;;;;;;;;4940678;29;20042;-91
2024/03/11 13:48:24;;;;;;;35.70;26.10;;;;;;;;;;5005909;28;20022;-91
2024/03/11 13:51:00;;;;;;;32.45;24.27;;;;;;;;;;5015243;28;20026;-93
2024/03/11 13:53:29;;;;;;;27.70;21.42;;;;;;;;;;5017693;28;20057;-93
2024/03/11 13:56:04;;;;;;;29.88;22.60;;;;;;;;;;5011881;28;20098;-87
2024/03/11 13:58:30;;;;;;;30.40;21.25;;;;;;;;;;5052374;28;20033;-93
2024/03/11 14:00:57;;;;;;;31.73;23.63;;;;;;;;;;5038174;28;20132;-91
2024/03/11 14:03:24;;;;;;;29.85;21.13;;;;;;;;;;5036062;28;20163;-92
2024/03/11 14:05:54;;;;;;;36.15;22.80;;;;;;;;;;5035416;28;20152;-91
2024/03/11 14:08:27;;;;;;;27.58;21.02;;;;;;;;;;5036813;28;20466;-94
2024/03/11 14:10:54;;;;;;;29.88;19.35;;;;;;;;;;5034441;28;20134;-92
2024/03/11 14:13:27;;;;;;;30.05;19.85;;;;;;;;;;5037684;28;20041;-94
2024/03/11 14:16:07;;;;;;;32.33;20.27;;;;;;;;;;5037935;28;20099;-93
2024/03/11 14:18:36;;;;;;;30.05;19.33;;;;;;;;;;5037007;28;20489;-93
2024/03/11 14:21:04;;;;;;;28.27;18.67;;;;;;;;;;5038013;28;20112;-95
2024/03/11 14:23:48;;;;;;;28.45;19.02;;;;;;;;;;5033337;28;20536;-95
2024/03/11 14:26:15;;;;;;;32.08;20.33;;;;;;;;;;5038666;28;20041;-95
2024/03/11 14:28:45;;;;;;;28.92;19.67;;;;;;;;;;5037514;28;20033;-92
2024/03/11 14:31:12;;;;;;;31.20;20.33;;;;;;;;;;5039222;28;20065;-94
2024/03/11 14:33:43;;;;;;;31.13;18.80;;;;;;;;;;5038659;28;20055;-95
2024/03/11 14:36:15;;;;;;;26.52;19.70;;;;;;;;;;5038048;28;20036;-95
2024/03/11 14:38:44;;;;;;;25.38;18.65;;;;;;;;;;5036519;28;20033;-93
2024/03/11 14:44:21;;;;;;;27.25;18.83;;;;;;;;;;5035970;28;20389;-90
2024/03/11 14:52:25;;;;;;;26.75;18.98;;;;;;;;;;5112465;22;20063;-95
2024/03/11 14:54:56;;;;;;;30.05;19.58;;;;;;;;;;5037200;28;20076;-91
2024/03/11 15:03:48;;;;;;;27.13;20.33;;;;;;;;;;5062419;28;20076;-95
2024/03/11 15:06:15;;;;;;;26.70;21.10;;;;;;;;;;5035615;28;20029;-93
2024/03/11 15:08:42;;;;;;;25.15;19.20;;;;;;;;;;5036537;28;20087;-90
2024/03/11 15:11:16;;;;;;;27.13;18.48;;;;;;;;;;5035789;28;20505;-94
2024/03/11 15:17:18;;;;;;;29.35;20.25;;;;;;;;;;5056365;28;20044;-94